Time;durP1;ratioP1;P1;durP2;ratioP2;P2;SDS_P1;SDS_P2;PMS_P1;PMS_P2;Temp;Humidity;BMP_temperature;BMP_pressure;BME280_temperature;BME280_humidity;BME280_pressure;Samples;Min_cycle;Max_cycle;Signal;HPM_P1;HPM_P2
2021/06/21 00:00:05;;;;;;;5.68;4.82;;;;;;;23.63;64.34;99233.09;5098279;28;20469;-81
2021/06/21 00:02:33;;;;;;;6.15;4.85;;;;;;;23.57;64.39;99234.81;5096936;28;20048;-81
2021/06/21 00:05:00;;;;;;;5.90;5.10;;;;;;;23.48;64.98;99232.53;5082936;28;20052;-81
2021/06/21 00:07:28;;;;;;;5.85;5.03;;;;;;;23.39;65.48;99234.31;5077528;28;20471;-81
2021/06/21 00:09:55;;;;;;;6.03;5.18;;;;;;;23.35;65.30;99242.09;5077539;28;20048;-81
2021/06/21 00:12:22;;;;;;;6.03;5.00;;;;;;;23.27;65.50;99233.72;5078255;28;20059;-81
2021/06/21 00:14:50;;;;;;;6.05;5.20;;;;;;;23.22;65.19;99230.56;5079362;28;20048;-81
2021/06/21 00:17:18;;;;;;;8.20;6.20;;;;;;;23.19;66.59;99231.44;5077951;28;20052;-81
2021/06/21 00:19:46;;;;;;;6.15;5.55;;;;;;;23.15;66.89;99234.31;5076850;28;20053;-82
2021/06/21 00:22:14;;;;;;;8.23;6.30;;;;;;;23.09;67.67;99233.19;5077247;28;20421;-81
2021/06/21 00:24:42;;;;;;;7.63;6.32;;;;;;;23.05;68.56;99232.44;5076706;28;20056;-81
2021/06/21 00:27:10;;;;;;;7.07;6.38;;;;;;;23.04;68.39;99230.84;5076764;28;20056;-81
2021/06/21 00:29:37;;;;;;;9.40;6.65;;;;;;;23.01;69.12;99238.19;5076790;28;20048;-80
2021/06/21 00:32:05;;;;;;;7.43;6.45;;;;;;;22.97;68.72;99230.91;5077144;28;20048;-81
2021/06/21 00:34:34;;;;;;;9.80;7.43;;;;;;;22.88;69.61;99222.94;5077305;28;20075;-81
2021/06/21 00:37:02;;;;;;;8.60;7.68;;;;;;;22.82;70.39;99218.97;5078102;28;20056;-81
2021/06/21 00:39:29;;;;;;;9.18;8.18;;;;;;;22.79;70.79;99226.31;5085175;28;20048;-81
2021/06/21 00:41:56;;;;;;;8.95;8.10;;;;;;;22.75;70.42;99222.72;5098008;28;20060;-81
2021/06/21 00:44:24;;;;;;;8.90;8.10;;;;;;;22.69;70.93;99216.72;5098034;28;20077;-80
2021/06/21 00:46:51;;;;;;;9.07;8.38;;;;;;;22.66;70.85;99211.91;5098428;28;20059;-81
2021/06/21 00:49:18;;;;;;;8.20;7.53;;;;;;;22.66;70.36;99217.59;5098282;28;20457;-82
2021/06/21 00:51:47;;;;;;;9.10;8.15;;;;;;;22.64;70.50;99219.25;5097045;28;20052;-81
2021/06/21 00:54:15;;;;;;;10.48;9.50;;;;;;;22.56;71.16;99215.72;5095223;28;20040;-81
2021/06/21 00:56:42;;;;;;;9.80;8.85;;;;;;;22.57;71.54;99213.66;5096241;28;20060;-81
2021/06/21 00:59:10;;;;;;;10.52;9.52;;;;;;;22.53;71.48;99201.56;5097542;28;20464;-81
2021/06/21 01:01:37;;;;;;;11.10;10.10;;;;;;;22.52;71.92;99200.75;5099100;28;20048;-80
2021/06/21 01:04:05;;;;;;;10.57;9.68;;;;;;;22.50;71.77;99192.66;5099182;28;20056;-81
2021/06/21 01:06:33;;;;;;;12.90;11.63;;;;;;;22.50;72.19;99189.03;5099737;28;20048;-81
2021/06/21 01:09:04;;;;;;;11.80;10.80;;;;;;;22.49;72.13;99191.09;5092077;28;20052;-81
2021/06/21 01:11:48;;;;;;;11.38;10.38;;;;;;;22.44;71.52;99185.06;5077511;28;20048;-81
2021/06/21 01:14:22;;;;;;;11.55;10.50;;;;;;;22.39;71.83;99179.88;5093646;28;20063;-80
2021/06/21 01:16:55;;;;;;;11.75;10.75;;;;;;;22.42;71.87;99184.69;5099312;28;20060;-81
2021/06/21 01:19:42;;;;;;;12.43;11.20;;;;;;;22.41;71.84;99183.09;5098186;28;20051;-81
2021/06/21 01:22:53;;;;;;;13.55;12.30;;;;;;;22.38;72.11;99178.25;5098342;28;20062;-81
2021/06/21 01:25:29;;;;;;;13.02;11.88;;;;;;;22.35;72.08;99168.56;5074652;28;20056;-80
2021/06/21 01:28:02;;;;;;;15.35;14.00;;;;;;;22.33;72.62;99173.06;5078538;28;20064;-80
2021/06/21 01:31:02;;;;;;;15.13;13.70;;;;;;;22.27;73.00;99165.03;5078187;28;20056;-80
2021/06/21 01:33:32;;;;;;;15.52;14.05;;;;;;;22.27;72.89;99156.50;5068078;28;20056;-80
2021/06/21 01:36:05;;;;;;;16.15;13.52;;;;;;;22.24;73.30;99146.03;5077895;28;20051;-80
2021/06/21 01:38:38;;;;;;;15.18;13.77;;;;;;;22.22;73.01;99131.44;5077810;28;20056;-80
2021/06/21 01:41:09;;;;;;;15.40;13.80;;;;;;;22.18;73.08;99122.19;5094698;28;20461;-81
2021/06/21 01:43:41;;;;;;;16.35;14.75;;;;;;;22.17;73.59;99126.22;5089993;28;20048;-81
2021/06/21 01:46:12;;;;;;;16.40;14.82;;;;;;;22.17;73.01;99123.41;5081771;28;20048;-80
2021/06/21 01:48:46;;;;;;;17.15;15.35;;;;;;;22.04;73.67;99114.66;5077853;28;20052;-80
2021/06/21 01:51:13;;;;;;;15.85;14.25;;;;;;;22.05;73.79;99126.84;5077154;28;20048;-81
2021/06/21 01:53:41;;;;;;;15.60;14.10;;;;;;;22.04;73.39;99126.00;5076554;28;20481;-80
2021/06/21 01:56:15;;;;;;;19.20;16.55;;;;;;;22.06;73.72;99117.09;5075904;28;20064;-80
2021/06/21 01:58:44;;;;;;;18.20;16.33;;;;;;;22.04;73.57;99111.03;5080425;28;20470;-81
2021/06/21 02:01:17;;;;;;;18.88;17.13;;;;;;;22.02;73.56;99105.78;5075729;28;20048;-81
2021/06/21 02:03:47;;;;;;;17.52;15.82;;;;;;;22.01;73.75;99097.72;5076277;28;20048;-80
2021/06/21 02:06:18;;;;;;;18.20;16.30;;;;;;;21.99;73.77;99089.63;5076503;28;20057;-80
2021/06/21 02:08:48;;;;;;;16.58;14.90;;;;;;;21.96;73.90;99084.00;5080322;28;20055;-80
2021/06/21 02:11:17;;;;;;;17.88;16.08;;;;;;;21.96;74.04;99101.00;5097224;28;20028;-80
2021/06/21 02:13:46;;;;;;;18.40;16.60;;;;;;;21.94;73.85;99103.47;5078739;28;20056;-80
2021/06/21 02:16:15;;;;;;;17.05;15.48;;;;;;;21.97;73.52;99102.63;5075768;28;20466;-80
2021/06/21 02:18:43;;;;;;;;;;;;;;;21.92;73.81;99105.94;5076435;28;20056;-80
2021/06/21 02:21:13;;;;;;;18.00;16.30;;;;;;;21.95;73.63;99093.75;5093542;28;20384;-80
2021/06/21 02:23:42;;;;;;;17.55;15.77;;;;;;;21.97;73.76;99091.28;5093001;28;20477;-79
2021/06/21 02:26:10;;;;;;;17.67;15.98;;;;;;;21.97;73.83;99079.94;5079165;28;20062;-80
2021/06/21 02:28:38;;;;;;;17.83;16.02;;;;;;;22.01;73.57;99083.53;5079064;28;20477;-80
2021/06/21 02:31:08;;;;;;;17.58;15.95;;;;;;;22.03;73.85;99087.56;5079644;28;20052;-80
2021/06/21 02:33:35;;;;;;;16.88;15.23;;;;;;;22.03;73.23;99092.44;5079709;28;20048;-80
2021/06/21 02:36:04;;;;;;;16.25;14.52;;;;;;;22.06;73.49;99094.41;5083488;28;20056;-79
2021/06/21 02:38:33;;;;;;;17.38;15.57;;;;;;;21.98;73.11;99098.56;5085173;28;20051;-80
2021/06/21 02:41:01;;;;;;;17.55;15.75;;;;;;;22.02;73.71;99096.47;5083482;28;20056;-81
2021/06/21 02:43:28;;;;;;;16.60;14.75;;;;;;;22.03;73.52;99098.09;5083953;28;20052;-81
2021/06/21 02:45:56;;;;;;;18.75;16.92;;;;;;;21.98;73.27;99107.06;5082684;28;20052;-80
2021/06/21 02:48:23;;;;;;;18.65;16.77;;;;;;;22.01;73.76;99095.69;5084084;28;20059;-80
2021/06/21 02:50:53;;;;;;;18.40;16.48;;;;;;;22.02;74.08;99093.63;5083620;28;20519;-80
2021/06/21 02:53:27;;;;;;;18.48;16.70;;;;;;;22.04;73.77;99096.84;5082427;28;20079;-81
2021/06/21 02:56:04;;;;;;;18.08;16.15;;;;;;;22.05;74.03;99087.94;5091566;28;20044;-81
2021/06/21 02:58:38;;;;;;;18.10;16.30;;;;;;;22.01;73.92;99098.50;5102134;28;20047;-81
2021/06/21 03:01:07;;;;;;;18.90;16.95;;;;;;;22.00;73.91;99107.44;5102661;28;20048;-80
2021/06/21 03:03:38;;;;;;;19.90;18.00;;;;;;;22.00;73.79;99098.94;5102306;28;20055;-81
2021/06/21 03:06:10;;;;;;;18.23;16.33;;;;;;;21.99;74.70;99106.66;5102136;28;20051;-80
2021/06/21 03:08:39;;;;;;;19.05;17.02;;;;;;;21.98;74.28;99107.06;5099667;28;20048;-80
2021/06/21 03:11:10;;;;;;;18.50;16.60;;;;;;;22.00;73.97;99094.06;5102298;28;20048;-80
2021/06/21 03:13:38;;;;;;;18.80;17.00;;;;;;;22.02;73.30;99102.16;5102450;28;20048;-80
2021/06/21 03:16:07;;;;;;;19.17;17.30;;;;;;;22.01;73.64;99097.72;5102631;28;20055;-80
2021/06/21 03:18:36;;;;;;;19.17;17.27;;;;;;;22.01;74.03;99086.38;5102496;28;20059;-80
2021/06/21 03:21:04;;;;;;;19.10;17.20;;;;;;;22.02;74.14;99090.81;5102246;28;20064;-81
2021/06/21 03:23:32;;;;;;;19.42;17.48;;;;;;;22.04;74.04;99099.69;5095357;28;20052;-81
2021/06/21 03:26:02;;;;;;;20.58;18.38;;;;;;;22.05;73.73;99089.97;5081445;28;20491;-81
2021/06/21 03:28:31;;;;;;;;;;;;;;;22.00;73.89;99093.25;5082305;28;20053;-81
2021/06/21 03:31:01;;;;;;;19.33;17.52;;;;;;;22.04;73.99;99096.84;5083572;28;19928;-80
2021/06/21 03:33:28;;;;;;;19.30;17.50;;;;;;;22.03;73.98;99101.72;5084224;28;20045;-80
2021/06/21 03:35:56;;;;;;;20.40;18.45;;;;;;;22.00;73.50;99090.44;5082141;28;20052;-81
2021/06/21 03:38:25;;;;;;;24.48;21.33;;;;;;;21.85;75.00;99090.63;5083391;28;20044;-80
2021/06/21 03:40:53;;;;;;;25.08;22.55;;;;;;;21.92;75.17;99083.25;5103721;28;20465;-80
2021/06/21 03:43:23;;;;;;;25.57;23.07;;;;;;;21.94;75.24;99083.63;5103561;28;20059;-80
2021/06/21 03:45:55;;;;;;;24.77;22.38;;;;;;;21.89;74.82;99080.03;5103957;28;20044;-79
2021/06/21 03:48:23;;;;;;;24.90;22.40;;;;;;;21.93;75.27;99074.31;5103168;28;20055;-80
2021/06/21 03:50:51;;;;;;;24.25;21.77;;;;;;;21.95;75.38;99071.88;5084526;28;20083;-80
2021/06/21 03:53:20;;;;;;;23.77;21.33;;;;;;;21.97;75.31;99062.94;5082811;28;20076;-81
2021/06/21 03:55:48;;;;;;;23.35;21.05;;;;;;;21.98;75.10;99053.19;5084355;28;20059;-81
2021/06/21 03:58:16;;;;;;;23.42;21.10;;;;;;;22.05;74.88;99067.28;5081836;28;20067;-80
2021/06/21 04:00:44;;;;;;;23.55;21.25;;;;;;;22.05;74.82;99076.59;5081846;28;20063;-80
2021/06/21 04:03:13;;;;;;;23.73;21.20;;;;;;;22.08;74.87;99063.56;5083386;28;20050;-80
2021/06/21 04:05:41;;;;;;;22.98;20.35;;;;;;;22.08;74.15;99064.38;5083097;28;20052;-79
2021/06/21 04:08:12;;;;;;;20.15;18.23;;;;;;;22.10;74.11;99061.91;5083511;28;20044;-80
2021/06/21 04:10:41;;;;;;;19.42;17.50;;;;;;;22.14;73.86;99063.91;5081927;28;20056;-81
2021/06/21 04:13:09;;;;;;;19.58;17.60;;;;;;;22.08;73.76;99058.69;5081587;28;20045;-80
2021/06/21 04:15:37;;;;;;;21.47;18.10;;;;;;;22.08;74.07;99061.53;5082885;28;20052;-80
2021/06/21 04:18:06;;;;;;;20.42;18.42;;;;;;;22.11;74.11;99062.72;5093923;28;20062;-80
2021/06/21 04:20:36;;;;;;;18.33;16.63;;;;;;;22.13;74.34;99070.81;5102183;28;20393;-81
2021/06/21 04:23:04;;;;;;;18.48;16.67;;;;;;;22.16;73.56;99065.09;5101384;28;20480;-80
2021/06/21 04:25:31;;;;;;;18.45;16.65;;;;;;;22.14;73.32;99063.91;5100808;28;20052;-81
2021/06/21 04:27:59;;;;;;;19.25;17.45;;;;;;;22.11;73.08;99065.53;5100988;28;20056;-81
2021/06/21 04:30:27;;;;;;;20.45;18.35;;;;;;;22.10;73.12;99066.78;5102405;28;20055;-81
2021/06/21 04:32:54;;;;;;;19.88;17.88;;;;;;;22.06;73.20;99066.03;5101025;28;20052;-80
2021/06/21 04:35:23;;;;;;;20.92;18.67;;;;;;;22.07;73.72;99067.66;5101911;28;20059;-80
2021/06/21 04:37:53;;;;;;;20.08;18.08;;;;;;;22.09;73.45;99068.84;5102160;28;20062;-80
2021/06/21 04:40:24;;;;;;;19.27;17.38;;;;;;;21.94;73.65;99073.06;5080701;28;20507;-80
2021/06/21 04:42:51;;;;;;;17.50;15.80;;;;;;;21.95;73.53;99068.22;5081782;28;20052;-80
2021/06/21 04:45:19;;;;;;;17.90;15.90;;;;;;;21.84;73.99;99074.06;5081505;28;20056;-80
2021/06/21 04:47:46;;;;;;;15.50;14.00;;;;;;;21.86;73.58;99077.25;5081391;28;20057;-80
2021/06/21 04:50:17;;;;;;;14.15;12.85;;;;;;;21.88;73.16;99067.09;5079871;28;20062;-80
2021/06/21 04:52:46;;;;;;;14.57;11.98;;;;;;;21.98;73.35;99064.53;5080650;28;20056;-80
2021/06/21 04:55:22;;;;;;;12.43;11.25;;;;;;;22.10;72.99;99058.28;5080801;28;20060;-80
2021/06/21 04:57:50;;;;;;;10.55;9.40;;;;;;;22.23;72.67;99061.38;5099646;28;20055;-81
2021/06/21 05:00:20;;;;;;;9.10;7.45;;;;;;;22.37;71.89;99054.69;5084810;28;20048;-80
2021/06/21 05:02:48;;;;;;;9.90;7.60;;;;;;;22.50;71.56;99058.50;5081052;28;20063;-81
2021/06/21 05:05:16;;;;;;;10.02;7.40;;;;;;;22.66;71.57;99064.31;5080534;28;20067;-80
2021/06/21 05:07:47;;;;;;;8.90;6.60;;;;;;;22.57;70.44;99055.53;5080072;28;20059;-80
2021/06/21 05:10:17;;;;;;;12.05;6.13;;;;;;;22.77;69.58;99069.81;5080785;28;20052;-81
2021/06/21 05:12:46;;;;;;;8.75;5.50;;;;;;;22.95;68.50;99061.00;5088133;28;20052;-80
2021/06/21 05:15:15;;;;;;;10.00;5.22;;;;;;;23.03;68.44;99053.94;5090098;28;20377;-81
2021/06/21 05:17:43;;;;;;;6.75;3.65;;;;;;;23.17;66.94;99052.88;5093452;28;20424;-81
2021/06/21 05:20:12;;;;;;;9.13;3.33;;;;;;;23.13;65.51;99057.03;5084176;28;20047;-81
2021/06/21 05:22:39;;;;;;;7.03;3.37;;;;;;;23.18;66.20;99053.69;5079145;28;20063;-81
2021/06/21 05:25:07;;;;;;;7.57;3.30;;;;;;;23.41;64.81;99059.31;5081063;28;20044;-81
2021/06/21 05:27:35;;;;;;;9.18;3.63;;;;;;;23.20;65.54;99059.72;5079726;28;20048;-81
2021/06/21 05:30:05;;;;;;;8.40;3.60;;;;;;;23.09;65.59;99055.06;5087329;28;20062;-81
2021/06/21 05:32:32;;;;;;;6.35;3.05;;;;;;;23.23;65.91;99058.88;5092405;28;20055;-79
2021/06/21 05:35:00;;;;;;;7.45;2.80;;;;;;;23.12;65.58;99072.47;5096263;28;20051;-83
2021/06/21 05:37:27;;;;;;;7.57;2.95;;;;;;;22.51;68.23;99065.81;5088744;28;20063;-77
2021/06/21 05:39:54;;;;;;;9.30;2.95;;;;;;;22.28;69.37;99063.72;5091883;28;20060;-78
2021/06/21 05:42:22;;;;;;;8.80;3.30;;;;;;;21.98;71.14;99058.88;5084286;28;20579;-78
2021/06/21 05:44:50;;;;;;;8.30;3.10;;;;;;;21.87;71.18;99054.13;5082252;28;20048;-78
2021/06/21 05:47:19;;;;;;;7.50;2.90;;;;;;;21.75;71.45;99068.88;5077191;28;20052;-78
2021/06/21 05:49:46;;;;;;;7.90;2.50;;;;;;;21.76;70.96;99070.50;5096707;28;20048;-77
2021/06/21 05:52:13;;;;;;;9.10;3.30;;;;;;;21.67;71.16;99073.03;5076508;28;20048;-77
2021/06/21 05:54:41;;;;;;;8.98;3.00;;;;;;;21.97;70.17;99063.75;5081426;28;20055;-81
2021/06/21 05:57:09;;;;;;;9.82;3.15;;;;;;;22.33;68.12;99059.59;5095094;28;20048;-81
2021/06/21 05:59:36;;;;;;;7.10;2.85;;;;;;;22.27;68.18;99064.94;5084395;28;20048;-80
2021/06/21 06:02:03;;;;;;;7.75;2.72;;;;;;;22.40;67.40;99059.47;5076010;28;20052;-79
2021/06/21 06:04:32;;;;;;;7.22;2.72;;;;;;;22.39;68.16;99066.41;5076405;28;20059;-80
2021/06/21 06:06:59;;;;;;;7.75;2.40;;;;;;;22.28;66.47;99060.91;5079246;28;20401;-80
2021/06/21 06:09:27;;;;;;;5.80;2.38;;;;;;;22.23;66.25;99052.84;5096523;28;20056;-81
2021/06/21 06:11:54;;;;;;;6.72;2.65;;;;;;;22.46;66.60;99066.28;5096918;28;20492;-79
2021/06/21 06:14:21;;;;;;;4.80;2.60;;;;;;;22.52;66.25;99063.75;5096216;28;20044;-80
2021/06/21 06:16:49;;;;;;;5.28;2.05;;;;;;;22.66;64.74;99061.47;5091603;28;20040;-80
2021/06/21 06:19:16;;;;;;;8.15;2.50;;;;;;;22.91;65.05;99057.41;5092267;28;20058;-78
2021/06/21 06:21:46;;;;;;;7.57;2.83;;;;;;;23.00;64.28;99066.16;5096141;28;20048;-79
2021/06/21 06:24:14;;;;;;;7.30;2.38;;;;;;;23.20;64.53;99057.69;5083261;28;20075;-79
2021/06/21 06:26:43;;;;;;;8.77;2.40;;;;;;;23.21;64.70;99052.81;5095750;28;20052;-78
2021/06/21 06:29:11;;;;;;;7.75;2.95;;;;;;;23.28;63.78;99058.34;5080534;28;20055;-78
2021/06/21 06:31:38;;;;;;;7.93;2.33;;;;;;;23.70;63.81;99067.25;5095253;28;20047;-79
2021/06/21 06:34:05;;;;;;;8.20;2.47;;;;;;;23.67;61.08;99079.50;5091009;28;20040;-78
2021/06/21 06:36:33;;;;;;;6.63;2.65;;;;;;;23.66;62.52;99072.22;5094608;28;20051;-78
2021/06/21 06:39:01;;;;;;;7.63;2.75;;;;;;;23.87;60.88;99071.78;5087668;28;20044;-79
2021/06/21 06:41:29;;;;;;;6.40;2.30;;;;;;;24.08;61.67;99076.19;5084436;28;20055;-79
2021/06/21 06:43:56;;;;;;;10.10;2.00;;;;;;;23.81;61.26;99079.25;5083970;28;20059;-80
2021/06/21 06:46:24;;;;;;;5.20;2.17;;;;;;;23.58;61.66;99079.28;5087766;28;20051;-81
2021/06/21 06:48:51;;;;;;;6.18;2.55;;;;;;;23.67;61.31;99085.19;5083484;28;20052;-82
2021/06/21 06:51:23;;;;;;;6.60;2.10;;;;;;;23.91;60.21;99089.56;5096624;28;20464;-82
2021/06/21 06:53:53;;;;;;;7.15;2.58;;;;;;;24.27;58.95;99094.47;5099564;28;20048;-82
2021/06/21 06:59:08;;;;;;;7.35;2.40;;;;;;;24.39;59.08;99089.31;5090295;28;20515;-82
2021/06/21 07:01:35;;;;;;;5.30;2.08;;;;;;;24.56;59.11;99105.19;5083719;28;20056;-82
2021/06/21 07:04:04;;;;;;;6.07;2.10;;;;;;;24.64;57.41;99078.16;5092361;28;20048;-83
2021/06/21 07:06:33;;;;;;;6.22;1.85;;;;;;;24.74;56.83;99098.25;5078934;28;20051;-82
2021/06/21 07:09:00;;;;;;;8.43;2.35;;;;;;;24.58;56.45;99090.53;5097638;28;20059;-83
2021/06/21 07:11:30;;;;;;;5.80;1.90;;;;;;;24.26;56.97;99104.25;5094285;28;20056;-81
2021/06/21 07:13:57;;;;;;;;;;;;;;;24.56;56.28;99098.72;5088683;28;20056;-82
2021/06/21 07:16:24;;;;;;;5.03;2.00;;;;;;;24.88;55.59;99103.59;5089171;28;19928;-82
2021/06/21 07:18:51;;;;;;;8.35;1.80;;;;;;;25.10;55.10;99106.69;5091153;28;20048;-82
2021/06/21 07:21:18;;;;;;;6.35;1.90;;;;;;;25.14;54.55;99110.25;5092684;28;20048;-83
2021/06/21 07:23:46;;;;;;;4.18;1.80;;;;;;;25.36;53.78;99104.81;5082714;28;20118;-81
2021/06/21 07:26:13;;;;;;;6.50;2.00;;;;;;;25.54;53.93;99109.22;5091359;28;20060;-80
2021/06/21 07:28:42;;;;;;;5.57;2.22;;;;;;;25.68;52.67;99120.22;5105265;28;20055;-81
2021/06/21 07:31:10;;;;;;;6.00;2.28;;;;;;;25.81;52.69;99109.66;5117786;28;20043;-83
2021/06/21 07:33:38;;;;;;;5.75;2.00;;;;;;;25.64;53.44;99114.63;5095696;28;20065;-81
2021/06/21 07:36:06;;;;;;;4.50;1.90;;;;;;;25.45;53.70;99116.38;5096404;28;20484;-82
2021/06/21 07:38:33;;;;;;;5.05;1.67;;;;;;;25.22;54.55;99122.28;5098271;28;20059;-81
2021/06/21 07:41:01;;;;;;;5.15;2.35;;;;;;;24.78;56.16;99113.22;5096212;28;20059;-81
2021/06/21 07:43:30;;;;;;;6.35;2.20;;;;;;;24.76;56.74;99130.75;5106494;28;20055;-84
2021/06/21 07:45:58;;;;;;;8.98;2.63;;;;;;;24.11;58.89;99128.56;5122272;28;20059;-84
2021/06/21 07:48:25;;;;;;;10.57;2.55;;;;;;;24.58;56.94;99116.94;5099988;28;20056;-83
2021/06/21 07:50:53;;;;;;;4.32;1.70;;;;;;;24.92;56.03;99116.53;5095497;28;20066;-82
2021/06/21 07:53:20;;;;;;;5.03;2.10;;;;;;;25.32;55.47;99126.91;5104181;28;20048;-81
2021/06/21 07:55:48;;;;;;;3.10;1.50;;;;;;;25.48;55.22;99123.22;5079505;28;20493;-80
2021/06/21 07:58:16;;;;;;;3.55;1.27;;;;;;;25.48;54.66;99124.00;5092475;28;20050;-80
2021/06/21 08:00:43;;;;;;;4.47;1.73;;;;;;;25.70;54.46;99115.69;5106486;28;20055;-82
2021/06/21 08:03:12;;;;;;;2.45;1.15;;;;;;;25.52;54.95;99124.72;5101443;28;20047;-81
2021/06/21 08:05:42;;;;;;;2.08;0.98;;;;;;;25.23;55.14;99129.59;5121014;28;20426;-82
2021/06/21 08:08:10;;;;;;;4.65;1.20;;;;;;;25.11;56.43;99134.75;5094530;28;20048;-81
2021/06/21 08:10:37;;;;;;;3.28;1.00;;;;;;;25.22;56.39;99139.38;5087631;28;20059;-80
2021/06/21 08:13:05;;;;;;;3.35;1.20;;;;;;;25.35;56.73;99142.31;5099839;28;20054;-81
2021/06/21 08:15:32;;;;;;;1.95;0.77;;;;;;;25.25;56.40;99139.28;5104637;28;20067;-79
2021/06/21 08:18:00;;;;;;;2.45;0.95;;;;;;;25.45;56.32;99133.47;5095289;28;20051;-79
2021/06/21 08:20:28;;;;;;;2.20;1.40;;;;;;;26.07;54.39;99135.41;5119464;28;20052;-79
2021/06/21 08:22:56;;;;;;;2.95;1.00;;;;;;;27.14;51.70;99132.00;5102954;28;20566;-79
2021/06/21 08:25:23;;;;;;;2.53;1.10;;;;;;;27.95;48.84;99131.63;5096297;28;20055;-78
2021/06/21 08:27:51;;;;;;;1.70;1.08;;;;;;;27.90;49.33;99124.41;5101109;28;20062;-81
2021/06/21 08:30:19;;;;;;;2.78;1.17;;;;;;;27.50;49.58;99136.47;5084228;28;20048;-80
2021/06/21 08:32:47;;;;;;;3.85;1.40;;;;;;;27.16;50.32;99133.59;5064009;28;20423;-81
2021/06/21 08:35:14;;;;;;;3.67;1.65;;;;;;;26.55;52.00;99118.47;5085490;28;21282;-81
2021/06/21 08:37:43;;;;;;;2.75;1.13;;;;;;;26.85;51.67;99142.78;5079079;28;20052;-81
2021/06/21 08:40:13;;;;;;;4.57;2.00;;;;;;;26.92;51.28;99136.84;5079316;28;20508;-80
2021/06/21 08:42:40;;;;;;;3.63;1.45;;;;;;;27.21;50.36;99138.72;5076871;28;20055;-77
2021/06/21 08:45:10;;;;;;;5.32;1.30;;;;;;;26.63;51.96;99137.78;5085809;28;20052;-79
2021/06/21 08:47:38;;;;;;;1.92;1.23;;;;;;;27.45;50.16;99133.44;5077605;28;20071;-79
2021/06/21 08:50:09;;;;;;;3.45;1.40;;;;;;;27.77;49.54;99137.19;5102269;28;20048;-81
2021/06/21 08:52:36;;;;;;;2.60;1.27;;;;;;;27.82;48.98;99128.78;5083557;28;20052;-81
2021/06/21 08:55:07;;;;;;;3.28;1.60;;;;;;;27.63;49.46;99127.06;5078155;28;20052;-82
2021/06/21 08:57:36;;;;;;;3.97;1.48;;;;;;;27.59;48.24;99127.19;5084259;28;20048;-79
2021/06/21 09:00:05;;;;;;;2.80;1.70;;;;;;;28.14;46.55;99144.78;5105621;28;20049;-81
2021/06/21 09:02:33;;;;;;;4.13;2.13;;;;;;;27.85;47.48;99124.22;5093207;28;20496;-81
2021/06/21 09:05:01;;;;;;;2.90;1.63;;;;;;;27.97;47.50;99128.28;5091793;28;20048;-81
2021/06/21 09:07:29;;;;;;;2.75;1.77;;;;;;;27.75;48.09;99117.63;5074556;28;20519;-82
2021/06/21 09:09:58;;;;;;;4.28;1.90;;;;;;;28.08;46.61;99125.84;5077601;28;20059;-81
2021/06/21 09:12:28;;;;;;;5.80;2.70;;;;;;;29.47;42.96;99110.72;5087557;28;20428;-82
2021/06/21 09:14:56;;;;;;;4.97;2.25;;;;;;;30.88;40.72;99114.41;5078777;28;20051;-82
2021/06/21 09:17:25;;;;;;;5.28;2.15;;;;;;;31.84;38.87;99122.19;5096604;28;20602;-82
2021/06/21 09:19:54;;;;;;;3.70;1.85;;;;;;;31.78;37.71;99112.63;5096575;28;20058;-82
2021/06/21 09:22:27;;;;;;;3.75;1.83;;;;;;;31.38;38.71;99113.91;5097383;28;20477;-86
2021/06/21 09:24:55;;;;;;;3.63;2.00;;;;;;;30.63;40.50;99123.44;5087925;28;20048;-82
2021/06/21 09:27:24;;;;;;;6.55;1.80;;;;;;;29.03;43.15;99133.88;5098118;28;20048;-83
2021/06/21 09:29:53;;;;;;;4.50;1.50;;;;;;;28.64;44.71;99124.03;5095858;28;20063;-83
2021/06/21 09:32:22;;;;;;;4.80;1.85;;;;;;;27.66;46.95;99134.72;5093771;28;20048;-83
2021/06/21 09:34:50;;;;;;;3.33;1.70;;;;;;;27.30;47.57;99130.28;5098286;28;20052;-81
2021/06/21 09:37:19;;;;;;;3.20;1.73;;;;;;;27.56;47.11;99125.25;5096790;28;20052;-82
2021/06/21 09:39:51;;;;;;;3.25;1.83;;;;;;;26.66;49.58;99145.44;5088613;28;20055;-82
2021/06/21 09:42:22;;;;;;;4.43;1.98;;;;;;;26.68;49.64;99140.06;5091270;28;20404;-82
2021/06/21 09:44:52;;;;;;;4.22;1.88;;;;;;;26.53;50.39;99139.69;5096574;28;20055;-81
2021/06/21 09:47:27;;;;;;;4.32;1.95;;;;;;;26.44;50.72;99141.66;5076329;28;20052;-81
2021/06/21 09:50:16;;;;;;;3.03;1.98;;;;;;;26.46;50.67;99144.84;5114542;28;20056;-80
2021/06/21 09:52:52;;;;;;;3.88;1.92;;;;;;;27.09;49.97;99134.66;5086927;28;20670;-80
2021/06/21 09:55:29;;;;;;;5.55;2.17;;;;;;;26.96;49.42;99162.44;5065574;28;20497;-80
2021/06/21 09:58:15;;;;;;;5.05;2.10;;;;;;;26.42;51.23;99158.44;5087769;28;20052;-80
2021/06/21 10:00:47;;;;;;;3.28;1.70;;;;;;;25.91;52.04;99168.50;5093105;28;20048;-83
2021/06/21 10:03:17;;;;;;;4.50;2.03;;;;;;;26.31;51.70;99173.00;5090426;28;20057;-83
2021/06/21 10:05:47;;;;;;;5.07;1.85;;;;;;;26.44;50.86;99170.19;5087118;28;20049;-83
2021/06/21 10:08:16;;;;;;;3.10;2.00;;;;;;;26.39;50.07;99174.41;5094902;28;20055;-83
2021/06/21 10:10:44;;;;;;;;;;;;;;;26.54;50.13;99171.91;5095893;28;20408;-81
2021/06/21 10:13:15;;;;;;;3.03;1.63;;;;;;;26.46;50.51;99173.41;5088398;28;19920;-83
2021/06/21 10:15:42;;;;;;;3.65;1.90;;;;;;;26.29;51.01;99182.06;5086320;28;20048;-82
2021/06/21 10:18:11;;;;;;;4.30;2.30;;;;;;;26.04;51.30;99199.09;5083611;28;20044;-83
2021/06/21 10:20:38;;;;;;;3.60;2.20;;;;;;;25.68;52.48;99191.50;5090063;28;20064;-83
2021/06/21 10:23:07;;;;;;;5.97;2.17;;;;;;;25.24;54.03;99189.00;5100672;28;20047;-83
2021/06/21 10:25:35;;;;;;;4.20;2.47;;;;;;;25.24;53.97;99188.19;5078704;28;20059;-83
2021/06/21 10:28:03;;;;;;;5.00;3.05;;;;;;;25.44;53.41;99191.72;5085790;28;20040;-82
2021/06/21 10:30:34;;;;;;;4.33;3.10;;;;;;;25.39;53.83;99203.69;5091003;28;20056;-83
2021/06/21 10:33:03;;;;;;;6.57;5.97;;;;;;;25.32;54.30;99212.41;5081220;28;20048;-84
2021/06/21 10:35:34;;;;;;;8.75;7.72;;;;;;;25.48;53.31;99212.41;5082952;28;20060;-83
2021/06/21 10:38:05;;;;;;;10.70;9.63;;;;;;;25.31;53.50;99227.94;5085674;28;20048;-83
2021/06/21 10:40:53;;;;;;;11.15;8.38;;;;;;;25.27;54.31;99221.50;5096570;28;20059;-84
2021/06/21 10:43:50;;;;;;;10.40;9.40;;;;;;;25.64;52.98;99230.72;5102918;28;20051;-82
2021/06/21 10:46:28;;;;;;;11.32;10.30;;;;;;;25.79;51.98;99234.03;5118237;28;20415;-84
2021/06/21 10:49:32;;;;;;;11.63;10.15;;;;;;;27.12;48.69;99243.13;5094311;28;20067;-81
2021/06/21 10:52:04;;;;;;;10.27;9.18;;;;;;;26.48;49.86;99245.94;5097015;28;20508;-83
2021/06/21 10:54:31;;;;;;;10.70;9.70;;;;;;;26.11;50.26;99245.34;5114198;28;20507;-82
2021/06/21 10:56:59;;;;;;;11.93;10.77;;;;;;;25.84;50.99;99267.69;5115094;28;20063;-81
2021/06/21 10:59:28;;;;;;;12.85;11.55;;;;;;;25.49;52.39;99271.03;5092200;28;20052;-79
2021/06/21 11:01:59;;;;;;;17.55;15.75;;;;;;;25.93;51.60;99273.56;5091633;28;20063;-80
2021/06/21 11:04:45;;;;;;;22.13;18.08;;;;;;;25.89;51.42;99276.56;5092593;28;20049;-83
2021/06/21 11:07:15;;;;;;;22.35;19.98;;;;;;;25.75;51.33;99285.44;5083044;28;20051;-80
2021/06/21 11:09:47;;;;;;;20.65;18.55;;;;;;;25.62;51.67;99299.63;5094296;28;20048;-82
2021/06/21 11:12:39;;;;;;;22.73;20.42;;;;;;;25.03;52.26;99312.84;5080721;28;20776;-82
2021/06/21 11:15:16;;;;;;;24.10;20.67;;;;;;;24.49;53.13;99313.19;5086568;28;20059;-83
2021/06/21 11:17:58;;;;;;;22.33;20.08;;;;;;;24.25;53.88;99321.75;5100903;28;20753;-81
2021/06/21 11:20:39;;;;;;;21.70;19.40;;;;;;;24.21;53.24;99326.72;5109719;28;20048;-81
2021/06/21 11:23:09;;;;;;;21.95;19.67;;;;;;;24.15;53.42;99331.31;5102869;28;20082;-81
2021/06/21 11:25:43;;;;;;;20.08;18.08;;;;;;;24.05;53.78;99335.94;5080570;28;20060;-81
2021/06/21 11:28:39;;;;;;;18.42;16.58;;;;;;;23.45;54.86;99352.75;5093383;28;20052;-81
2021/06/21 11:31:23;;;;;;;17.48;15.63;;;;;;;23.31;55.52;99353.00;5097195;28;20060;-80
2021/06/21 11:33:52;;;;;;;19.13;16.80;;;;;;;23.43;56.00;99354.44;5104289;28;20062;-81
2021/06/21 11:36:40;;;;;;;16.15;14.32;;;;;;;23.42;55.75;99356.47;5077921;28;20056;-81
2021/06/21 11:39:24;;;;;;;16.40;14.65;;;;;;;23.29;56.15;99355.47;5085795;28;20048;-79
2021/06/21 11:42:01;;;;;;;16.75;14.43;;;;;;;23.21;56.02;99368.97;5080563;28;20385;-81